Wednesday, January 17, 2018, 1:14 PM GMT
Back to Local

CWKG, Kejimkujik 1, N. S.

Location: , , Canada Lat: 44.433
Local Time: 1:14 PM GMT (13:14 GMT) Lon: -65.2
Time Zone: GMT Elev: 416 ft

Show me the last for .
Show Decoded

2018-01-17 12:00 METAR CWKG 171200Z AUTO 12003KT M06/M07 RMK AO1 9PAST HR SOG 06 8002 SLP310
                 P0004 T10601069 50020 =
2018-01-17 11:00 METAR CWKG 171100Z AUTO 14002KT M06/M07 RMK AO1 6PAST HR SOG 04 1012 SLP316
                 P0002 T10621072 50011 =
2018-01-17 10:00 METAR CWKG 171000Z AUTO 14002KT M07/M08 RMK AO1 3PAST HR SOG 04 6002 SLP311
                 P0001 T10651075 50005 =
2018-01-17 09:00 METAR CWKG 170900Z AUTO 15002KT M07/M08 RMK AO1 SOG 05 3004 SLP312 T10681078
                 50002 =
2018-01-17 08:00 METAR CWKG 170800Z AUTO 10002KT M07/M08 RMK AO1 SOG 05 8010 SLP304 T10721082
                 50002 =
2018-01-17 07:00 METAR CWKG 170700Z AUTO 09001KT M08/M09 RMK AO1 2PAST HR SOG 05 5006 SLP313
                 P0001 T10771087 50002 =
2018-01-17 06:00 METAR CWKG 170600Z AUTO 14002KT M08/M09 RMK AO1 SOG 05 8012 SLP308 T10781089 =
2018-01-17 05:00 METAR CWKG 170500Z AUTO 00000KT M08/M09 RMK AO1 SOG 05 8007 SLP314 T10811091 =
2018-01-17 04:00 METAR CWKG 170400Z AUTO 25002KT M08/M10 RMK AO1 SOG 05 0000 SLP319 T10831096 =
2018-01-17 03:00 METAR CWKG 170300Z AUTO 19003KT M08/M10 RMK AO1 SOG 05 6002 SLP320 T10831095 =
2018-01-17 02:00 METAR CWKG 170200Z AUTO 31001KT M08/M10 RMK AO1 SOG 05 1004 SLP321 T10811096 =
2018-01-17 01:00 METAR CWKG 170100Z AUTO 27001KT M08/M10 RMK AO1 SOG 05 0008 SLP319 T10801095 =
2018-01-17 00:00 METAR CWKG 170000Z AUTO 29001KT M08/M09 RMK AO1 SOG 05 3006 SLP322 T10771089 =
2018-01-16 23:00 METAR CWKG 162300Z AUTO 30002KT M07/M08 RMK AO1 SOG 05 1011 SLP317 T10671082 =
2018-01-16 22:00 METAR CWKG 162200Z AUTO 31003KT M05/M07 RMK AO1 SOG 05 0012 SLP311 T10541070 =
2018-01-16 21:00 METAR CWKG 162100Z AUTO 29005KT M04/M06 RMK AO1 SOG 05 3020 SLP316 T10421061 =
2018-01-16 20:00 METAR CWKG 162000Z AUTO 29005KT M04/M06 RMK AO1 SOG 05 3011 SLP306 T10351055 =
2018-01-16 19:00 METAR CWKG 161900Z AUTO 32005KT M03/M05 RMK AO1 SOG 05 5002 SLP298 T10321049 =
2018-01-16 18:00 METAR CWKG 161800Z AUTO 30005KT M03/M05 RMK AO1 SOG 05 5007 SLP295 T10321049 =
2018-01-16 17:00 METAR CWKG 161700Z AUTO 31004KT M03/M04 RMK AO1 SOG 05 8010 SLP294 T10271040 =
2018-01-16 16:00 METAR CWKG 161600Z AUTO 30002KT M03/M04 RMK AO1 SOG 05 0002 SLP301 T10311044 =
2018-01-16 15:00 METAR CWKG 161500Z AUTO 32002KT M04/M05 RMK AO1 SOG 05 0012 SLP303 T10391049 =
2018-01-16 14:00 METAR CWKG 161400Z AUTO 34002KT M05/M06 RMK AO1 SOG 05 1022 SLP305 T10471056 =

Support USWX by starting your Amazon purchase here.